Latest Coastal Weather Observations for Brisbane Airport

IDQ60701

Issued at 8:42 am EST Wednesday 4 March 2015 (issued every 10 minutes, with the page automatically refreshed every 10 minutes)

About coastal observations | Map of coastal stations | Coastal observations for QLD | Marine services | Other Formats
Station Details ID: 040842 Name: BRISBANE AERO Lat: -27.39 Lon: 153.13 Height: 4.51 m
Data from the previous 72 hours. | See also: Recent months at Brisbane Airport
Date/Time
EST
Temp

°C
Wind Pressure Rain
since 9am
mm
Weather Cloud Vis
km
Sea
Height
m
Swell
Dir
 
Speed
knots
Gust
knots
hPa Trend Height
m
Period
s
Dir
04/08:30am 25.9 S 4 6 1014.8 - 0.0 - Mostly clear 10 - - - -
04/07:30am 23.8 SSW 7 9 1014.1 - 0.0 - Mostly clear 10 - - - -
04/07:00am 22.6 SSW 6 7 1013.8 - 0.0 - Mostly clear 10 - - - -
04/06:30am 21.1 S 5 6 1013.7 - 0.0 - Mostly clear 10 - - - -
04/06:00am 20.5 S 5 6 1013.4 F 0.0 Haze Mostly clear 20 - - - -
04/05:30am 20.6 S 5 7 1013.1 - 0.0 - Mostly clear 10 - - - -
04/05:00am 21.1 S 6 7 1013.1 - 0.0 - Mostly clear 10 - - - -
04/04:30am 20.3 SSW 5 6 1012.9 - 0.0 - Mostly clear 10 - - - -
04/04:00am 21.1 SW 1 3 1012.5 - 0.0 - Mostly clear 10 - - - -
04/03:30am 21.3 SW 4 4 1012.6 - 0.0 - Mostly clear 10 - - - -
04/03:00am 21.5 SSW 4 4 1013.1 F 0.0 Fine Partly cloudy 30 - - - -
04/02:30am 21.7 CALM 0 0 1013.4 - 0.0 - Mostly clear 10 - - - -
04/02:00am 22.0 SSW 4 4 1013.6 - 0.0 - Mostly clear 10 - - - -
04/01:30am 22.0 SSW 4 5 1014.1 - 0.0 - Mostly clear 10 - - - -
04/01:00am 22.9 S 3 4 1014.4 - 0.0 - Mostly clear 10 - - - -
 
Date/Time
EST
Temp

°C
Wind Pressure Rain
since 9am
mm
Weather Cloud Vis
km
Sea
Height
m
Swell
Dir
 
Speed
knots
Gust
knots
hPa Trend Height
m
Period
s
Dir
03/11:30pm 24.5 ESE 5 7 1015.4 - 0.0 - Mostly clear 10 - - - -
03/11:00pm 24.8 E 5 8 1015.6 - 0.0 - Mostly cloudy 10 - - - -
03/10:30pm 24.8 ESE 6 8 1015.5 - 0.0 - Mostly cloudy 10 - - - -
03/10:00pm 25.0 ESE 5 7 1015.5 - 0.0 - Mostly cloudy 10 - - - -
03/09:30pm 24.8 E 4 7 1015.5 - 0.0 - Mostly cloudy 10 - - - -
03/09:00pm 24.7 E 5 8 1015.3 S 0.0 Fine Partly cloudy 30 - - - -
03/08:30pm 24.7 E 5 6 1015.1 - 0.0 - Mostly clear 10 - - - -
03/08:00pm 24.8 E 5 7 1014.9 - 0.0 - Mostly clear 10 - - - -
03/07:30pm 24.8 E 6 8 1014.5 - 0.0 - Mostly clear 10 - - - -
03/07:00pm 25.1 E 5 8 1014.2 - 0.0 - Mostly clear 10 - - - -
03/06:30pm 25.1 E 7 10 1013.8 - 0.0 - Mostly clear 10 - - - -
03/06:00pm 25.7 E 7 9 1013.7 R 0.0 Haze Mostly clear 25 - - - -
03/05:30pm 26.4 E 8 11 1013.4 - 0.0 - Mostly clear 10 - - - -
03/05:00pm 26.8 E 8 13 1013.3 - 0.0 - Mostly clear 10 - - - -
03/04:30pm 27.5 E 8 12 1013.0 - 0.0 - Mostly clear 10 - - - -
03/04:00pm 27.4 E 8 14 1013.0 - 0.0 - Mostly clear 10 - - - -
03/03:30pm 27.6 E 7 13 1012.8 - 0.0 - Mostly clear 10 - - - -
03/03:00pm 28.0 E 9 14 1012.8 F 0.0 Haze Mostly clear 25 - - - -
03/02:30pm 28.0 E 9 14 1013.2 - 0.0 - Mostly clear 10 - - - -
03/02:00pm 27.8 ENE 9 13 1013.4 - 0.0 - Mostly clear 10 - - - -
03/01:30pm 27.8 ESE 8 13 1013.8 - 0.0 - Mostly clear 10 - - - -
03/01:00pm 27.7 ESE 8 13 1014.2 - 0.0 - Mostly clear 10 - - - -
03/12:30pm 27.6 ESE 8 12 1014.5 - 0.0 - Mostly clear 10 - - - -
03/12:00pm 28.0 ESE 9 13 1014.9 R 0.0 Fine Mostly clear 30 - - - -
03/11:30am 28.0 ESE 8 13 1015.1 - 0.0 - Mostly clear 10 - - - -
03/11:00am 27.9 ESE 9 14 1015.5 - 0.0 - Mostly clear 10 - - - -
03/10:30am 27.7 ESE 8 12 1015.8 - 0.0 - Mostly clear 10 - - - -
03/10:00am 27.8 ESE 8 13 1015.9 - 0.0 - Mostly clear 10 - - - -
03/09:30am 27.4 SE 7 11 1015.9 - 0.0 - Mostly clear 10 - - - -
03/09:00am 27.2 SSE 7 11 1015.8 R 0.0 Haze Partly cloudy 20 - - - -
03/08:30am 25.7 S 6 8 1015.7 - 0.0 - Mostly clear 10 - - - -
03/08:00am 24.8 S 6 9 1015.4 - 0.0 - Mostly clear 10 - - - -
03/07:30am 23.9 SSW 8 10 1015.1 - 0.0 - Mostly clear 10 - - - -
03/07:00am 23.1 SSW 8 10 1015.0 - 0.0 - Mostly clear 10 - - - -
03/06:30am 21.6 SSW 8 11 1014.9 - 0.0 - Mostly clear 10 - - - -
03/06:00am 21.3 SSW 6 8 1014.6 R 0.0 Haze Partly cloudy 25 - - - -
03/05:30am 21.2 SSW 6 8 1014.4 - 0.0 - Mostly clear 10 - - - -
03/05:00am 21.1 SSW 7 8 1014.1 - 0.0 - Mostly clear 10 - - - -
03/04:30am 20.5 SSW 6 7 1014.0 - 0.0 - Mostly clear 10 - - - -
03/04:00am 20.5 SSW 5 6 1013.7 - 0.0 - Mostly clear 10 - - - -
03/03:30am 20.9 SSW 5 6 1013.8 - 0.0 - Mostly clear 10 - - - -
03/03:00am 21.3 SSW 5 7 1013.6 F 0.0 Fine Partly cloudy 25 - - - -
03/02:30am 22.0 S 5 7 1013.7 - 0.0 - Mostly clear 10 - - - -
03/02:00am 21.7 SSW 6 8 1014.0 - 0.0 - Mostly clear 10 - - - -
03/01:30am 22.9 SSW 8 11 1014.2 - 0.0 - Mostly clear 10 - - - -
03/01:00am 23.3 S 8 12 1014.3 - 0.0 - Mostly clear 10 - - - -
03/12:30am 23.0 S 9 15 1014.6 - 0.0 - Mostly clear 10 - - - -
03/12:00am 23.1 S 7 10 1014.9 R 0.0 Fine Mostly clear 25 - - - -
 
Date/Time
EST
Temp

°C
Wind Pressure Rain
since 9am
mm
Weather Cloud Vis
km
Sea
Height
m
Swell
Dir
 
Speed
knots
Gust
knots
hPa Trend Height
m
Period
s
Dir
02/11:30pm 23.2 S 7 10 1015.2 - 0.0 - - 10 - - - -
02/11:00pm 23.5 S 6 9 1015.2 - 0.0 - - 10 - - - -
02/10:30pm 24.1 S 8 14 1015.3 - 0.0 - Partly cloudy 10 - - - -
02/10:00pm 25.0 SSE 9 15 1015.0 - 0.0 Showers Mostly clear 10 - - - -
02/09:30pm 24.4 S 6 9 1015.1 - 0.0 - Mostly clear 10 - - - -
02/09:00pm 24.8 SSE 7 11 1015.0 R 0.0 Haze Mostly cloudy 25 - - - -
02/08:30pm 24.8 SSE 7 11 1014.9 - 0.0 - Mostly clear 10 - - - -
02/08:00pm 25.3 SE 9 14 1014.5 - 0.0 - Mostly clear 10 - - - -
02/07:30pm 25.7 SE 10 18 1014.1 - 0.0 - Mostly clear 10 - - - -
02/07:00pm 25.8 SE 11 18 1013.5 - 0.0 - Mostly clear 10 - - - -
02/06:30pm 25.9 SE 11 19 1013.2 - 0.0 - Mostly clear 10 - - - -
02/06:00pm 26.0 ESE 12 20 1012.7 R 0.0 Haze Mostly clear 20 - - - -
02/05:30pm 26.5 ESE 12 20 1012.3 - 0.0 - Mostly clear 10 - - - -
02/05:00pm 27.2 ESE 13 20 1011.8 - 0.0 - Mostly clear 10 - - - -
02/04:30pm 28.1 SE 11 19 1011.5 - 0.0 - Mostly clear 10 - - - -
02/04:00pm 27.9 ESE 13 21 1011.3 - 0.0 - Mostly clear 10 - - - -
02/03:30pm 28.1 ESE 13 24 1011.2 - 0.0 - Mostly clear 10 - - - -
02/03:06pm 28.7 ESE 15 25 1011.2 - 0.0 - Mostly clear 10 - - - -
02/03:00pm 28.8 ESE 16 22 1011.1 R 0.0 Distant precip. Partly cloudy 25 - - - -
02/02:30pm 29.2 ESE 15 22 1011.1 - 0.0 - Mostly clear 10 - - - -
02/02:00pm 29.1 ESE 13 22 1011.2 - 0.0 - Mostly clear 10 - - - -
02/01:30pm 29.2 ESE 11 18 1011.6 - 0.0 - Mostly clear 10 - - - -
02/01:00pm 29.1 ESE 12 18 1011.8 - 0.0 - Mostly clear 10 - - - -
02/12:30pm 29.1 ESE 12 20 1012.1 - 0.0 - Mostly clear 10 - - - -
02/12:00pm 29.3 ESE 12 20 1012.4 R 0.0 Recent precip. Partly cloudy 30 - - - -
02/11:30am 27.7 ESE 11 18 1012.7 - 0.0 Showers Mostly clear 10 - - - -
02/11:00am 28.4 ESE 12 18 1012.9 - 0.0 Showers Mostly clear 10 - - - -
02/10:30am 28.2 ESE 11 18 1013.1 - 0.0 - Mostly clear 10 - - - -
02/10:00am 28.0 ESE 9 14 1013.0 - 0.0 - Mostly clear 10 - - - -
02/09:30am 27.6 E 8 11 1013.0 - 0.0 - Mostly clear 10 - - - -
02/09:00am 28.1 SSE 6 10 1012.7 R 0.0 Fine Partly cloudy 30 - - - -
02/08:30am 27.2 S 6 9 1012.5 - 0.0 - Partly cloudy 10 - - - -
02/08:00am 26.9 SSW 6 9 1012.1 - 0.0 - Mostly clear 10 - - - -
02/07:30am 25.9 SSW 5 7 1012.1 - 0.0 - Mostly clear 10 - - - -
02/07:00am 24.9 SSW 5 8 1011.9 - 0.0 - Mostly clear 10 - - - -
02/06:30am 24.1 S 6 8 1011.9 - 0.0 - Mostly clear 10 - - - -
02/06:00am 23.6 S 4 6 1011.4 R 0.0 Haze Partly cloudy 20 - - - -
02/05:30am 23.6 S 5 7 1011.1 - 0.0 - Mostly clear 10 - - - -
02/05:00am 23.9 S 5 6 1010.8 - 0.0 - Partly cloudy 10 - - - -
02/04:30am 23.0 SSW 3 4 1010.1 - 0.0 - Mostly clear 10 - - - -
02/04:00am 23.1 SSW 1 5 1009.9 - 0.0 - Mostly clear 10 - - - -
02/03:30am 23.4 W 5 5 1009.7 - 0.0 - Mostly clear 10 - - - -
02/03:00am 23.9 W 4 7 1009.7 R 0.0 Fine Partly cloudy 30 - - - -
02/02:30am 24.1 W 3 4 1009.5 - 0.0 - Mostly clear 10 - - - -
02/02:00am 24.1 W 5 5 1009.6 - 0.0 - Mostly clear 10 - - - -
02/01:30am 24.1 WNW 3 4 1009.6 - 0.0 - Mostly clear 10 - - - -
02/01:00am 24.2 NNE 2 5 1010.1 - 0.0 - Mostly clear 10 - - - -
02/12:30am 24.1 CALM 0 0 1010.1 - 0.0 - Mostly clear 10 - - - -
02/12:00am 24.5 CALM 0 0 1010.3 R 0.0 Fine Mostly clear 30 - - - -
 
Date/Time
EST
Temp

°C
Wind Pressure Rain
since 9am
mm
Weather Cloud Vis
km
Sea
Height
m
Swell
Dir
 
Speed
knots
Gust
knots
hPa Trend Height
m
Period
s
Dir
01/11:30pm 24.6 N 6 7 1010.2 - 0.0 - Mostly clear 10 - - - -
01/11:00pm 25.1 N 9 18 1009.9 - 0.0 - Mostly clear 10 - - - -
01/10:30pm 25.4 N 9 12 1010.0 - 0.0 - Mostly clear 10 - - - -
01/10:00pm 25.2 N 8 10 1010.1 - 0.0 - Mostly clear 10 - - - -
01/09:30pm 25.3 N 8 9 1010.4 - 0.0 - Mostly clear 10 - - - -
01/09:00pm 25.3 N 10 14 1010.1 R 0.0 Haze Mostly cloudy 25 - - - -
01/08:30pm 25.4 NNE 10 13 1009.8 - 0.0 - Mostly clear 10 - - - -
01/08:00pm 25.4 N 9 12 1009.5 - 0.0 - Mostly clear 10 - - - -
01/07:30pm 25.4 N 9 11 1009.4 - 0.0 - Mostly clear 10 - - - -
01/07:00pm 25.3 N 11 14 1008.6 - 0.0 - Mostly clear 10 - - - -
01/06:30pm 25.4 N 11 14 1008.3 - 0.0 - Mostly clear 10 - - - -
01/06:00pm 25.7 N 11 15 1008.2 R 0.0 Haze Mostly clear 20 - - - -
01/05:30pm 26.2 N 13 16 1008.0 - 0.0 - Mostly clear 10 - - - -
01/05:00pm 27.1 N 10 13 1007.9 - 0.0 - Mostly clear 10 - - - -
01/04:30pm 27.7 N 11 14 1007.5 - 0.0 - Mostly clear 10 - - - -
01/04:00pm 28.0 NNE 10 14 1007.5 - 0.0 - Mostly clear 10 - - - -
01/03:30pm 27.9 NE 11 15 1007.6 - 0.0 - Mostly clear 10 - - - -
01/03:00pm 27.7 NE 11 15 1008.0 F 0.0 Haze Mostly clear 25 - - - -
01/02:30pm 28.0 NE 11 15 1008.2 - 0.0 - Mostly clear 10 - - - -
01/02:00pm 28.3 NE 11 15 1008.4 - 0.0 - Mostly clear 10 - - - -
01/01:30pm 28.4 NNE 11 14 1008.8 - 0.0 - Mostly clear 10 - - - -
01/01:00pm 28.6 NNE 10 14 1009.0 - 0.0 - Mostly clear 10 - - - -
01/12:30pm 28.6 NE 9 14 1009.5 - 0.0 - Mostly clear 10 - - - -
01/12:00pm 28.4 NNE 9 12 1009.8 F 0.0 Haze Mostly clear 25 - - - -
01/11:30am 28.1 NNE 7 10 1010.1 - 0.0 - Partly cloudy 10 - - - -
01/11:00am 27.8 N 7 10 1010.5 - 0.0 - Partly cloudy 10 - - - -
01/10:30am 27.9 N 7 10 1011.0 - 0.0 - Partly cloudy 10 - - - -
01/10:00am 27.8 N 7 9 1011.2 - 0.0 - Partly cloudy 10 - - - -
01/09:30am 26.6 NNE 7 9 1011.2 - 0.0 - Partly cloudy 10 - - - -
01/09:00am 25.9 N 2 6 1011.1 S 0.0 Haze Partly cloudy 25 - - - -

Other Formats:

Comma delimited format used in spreadsheet applications
http://www.bom.gov.au/fwo/IDQ60701/IDQ60701.94578.axf

JavaScript Object Notation format (JSON) in row-major order
http://www.bom.gov.au/fwo/IDQ60701/IDQ60701.94578.json